Time;durP1;ratioP1;P1;durP2;ratioP2;P2;SDS_P1;SDS_P2;PMS_P1;PMS_P2;Temp;Humidity;BMP_temperature;BMP_pressure;BME280_temperature;BME280_humidity;BME280_pressure;Samples;Min_cycle;Max_cycle;Signal;HPM_P1;HPM_P2
2022/06/30 00:01:02;;;;;;;6.20;5.65;;;21.40;99.90;;;;;;5065105;28;20084;-65
2022/06/30 00:03:27;;;;;;;5.75;5.18;;;21.50;99.90;;;;;;5066460;28;20091;-65
2022/06/30 00:05:53;;;;;;;5.82;5.10;;;21.50;99.90;;;;;;5065379;28;20403;-64
2022/06/30 00:08:18;;;;;;;5.07;4.68;;;21.50;99.90;;;;;;5065625;28;20044;-64
2022/06/30 00:10:44;;;;;;;4.95;4.55;;;21.40;99.90;;;;;;5065654;28;20128;-64
2022/06/30 00:13:09;;;;;;;6.65;4.60;;;21.40;99.90;;;;;;5065515;28;20454;-65
2022/06/30 00:15:37;;;;;;;8.10;3.83;;;21.30;99.90;;;;;;5066151;28;20041;-65
2022/06/30 00:18:03;;;;;;;4.90;4.03;;;21.30;99.90;;;;;;5065320;28;20052;-65
2022/06/30 00:20:29;;;;;;;4.32;4.00;;;21.30;99.90;;;;;;5066460;28;20105;-64
2022/06/30 00:22:54;;;;;;;4.40;4.10;;;21.30;99.90;;;;;;5065900;28;20491;-64
2022/06/30 00:25:20;;;;;;;6.80;4.40;;;21.20;99.90;;;;;;5065061;28;20076;-64
2022/06/30 00:27:46;;;;;;;3.95;3.65;;;21.20;99.90;;;;;;5064619;28;20049;-65
2022/06/30 00:30:12;;;;;;;5.43;3.80;;;21.20;99.90;;;;;;5066696;28;20090;-64
2022/06/30 00:32:37;;;;;;;3.78;3.30;;;21.10;99.90;;;;;;5065989;28;20443;-64
2022/06/30 00:35:03;;;;;;;4.28;3.50;;;21.10;99.90;;;;;;5066116;28;20083;-65
2022/06/30 00:37:29;;;;;;;3.55;3.05;;;21.00;99.90;;;;;;5065956;28;20040;-64
2022/06/30 00:39:54;;;;;;;3.08;2.75;;;21.00;99.90;;;;;;5064888;28;20044;-65
2022/06/30 00:42:20;;;;;;;3.17;2.75;;;20.90;99.90;;;;;;5066421;28;20037;-64
2022/06/30 00:44:46;;;;;;;3.97;2.75;;;20.90;99.90;;;;;;5065808;28;20052;-65
2022/06/30 00:47:11;;;;;;;5.10;2.88;;;20.90;99.90;;;;;;5065106;28;20526;-65
2022/06/30 00:49:37;;;;;;;3.13;2.83;;;20.80;99.90;;;;;;5065038;28;20048;-64
2022/06/30 00:52:06;;;;;;;3.33;2.63;;;20.70;99.90;;;;;;5064307;28;20140;-64
2022/06/30 00:54:34;;;;;;;2.97;2.78;;;20.70;99.90;;;;;;5063733;28;20048;-65
2022/06/30 00:57:00;;;;;;;3.35;3.05;;;20.60;99.90;;;;;;5065425;28;20053;-64
2022/06/30 00:59:27;;;;;;;4.50;2.70;;;20.60;99.90;;;;;;5064530;28;20057;-64
2022/06/30 01:01:53;;;;;;;3.58;3.28;;;20.60;99.90;;;;;;5064542;28;20079;-64
2022/06/30 01:04:20;;;;;;;4.95;3.13;;;20.50;99.90;;;;;;5065818;28;20487;-64
2022/06/30 01:06:46;;;;;;;3.40;3.10;;;20.50;99.90;;;;;;5065654;28;20037;-64
2022/06/30 01:12:41;;;;;;;2.85;2.65;;;20.50;99.90;;;;;;5065031;28;20037;-64
2022/06/30 01:14:43;;;;;;;3.25;2.95;;;20.40;99.90;;;;;;5065119;28;20056;-64
2022/06/30 01:17:11;;;;;;;3.53;3.22;;;20.40;99.90;;;;;;5066454;28;20047;-64
2022/06/30 01:19:36;;;;;;;4.10;3.67;;;20.30;99.90;;;;;;5066033;28;20044;-64
2022/06/30 01:22:03;;;;;;;3.70;3.50;;;20.30;99.90;;;;;;5063610;28;20052;-64
2022/06/30 01:24:28;;;;;;;3.58;3.28;;;20.20;99.90;;;;;;5065605;28;20048;-64
2022/06/30 01:26:57;;;;;;;3.80;3.50;;;20.20;99.90;;;;;;5064939;28;20048;-64
2022/06/30 01:29:23;;;;;;;4.05;3.20;;;20.20;99.90;;;;;;5064920;28;20084;-64
2022/06/30 01:31:49;;;;;;;3.28;3.05;;;20.10;99.90;;;;;;5065498;28;20075;-64
2022/06/30 01:34:15;;;;;;;3.35;3.05;;;20.10;99.90;;;;;;5064277;28;20079;-64
2022/06/30 01:36:42;;;;;;;4.30;3.40;;;20.10;99.90;;;;;;5068940;28;20506;-64
2022/06/30 01:39:07;;;;;;;3.28;2.90;;;20.10;99.90;;;;;;5069425;28;20048;-65
2022/06/30 01:41:33;;;;;;;3.30;3.00;;;20.10;99.90;;;;;;5067857;28;20442;-65
2022/06/30 01:43:59;;;;;;;7.60;3.30;;;20.10;99.90;;;;;;5068596;28;20066;-64
2022/06/30 01:46:25;;;;;;;3.70;2.95;;;20.10;99.90;;;;;;5067736;28;20507;-64
2022/06/30 01:48:50;;;;;;;3.10;2.90;;;20.10;99.90;;;;;;5068929;28;20109;-64
2022/06/30 01:51:16;;;;;;;3.78;2.63;;;20.20;99.90;;;;;;5068216;28;20119;-64
2022/06/30 01:53:41;;;;;;;2.72;2.53;;;20.10;99.90;;;;;;5069007;28;20430;-64
2022/06/30 01:56:07;;;;;;;2.67;2.40;;;20.10;99.90;;;;;;5068630;28;20492;-64
2022/06/30 01:58:33;;;;;;;3.15;2.75;;;20.00;99.90;;;;;;5068572;28;20087;-64
2022/06/30 02:00:58;;;;;;;3.17;2.60;;;20.10;99.90;;;;;;5067492;28;20122;-64
2022/06/30 02:03:24;;;;;;;3.80;3.05;;;20.00;99.90;;;;;;5067224;28;20343;-64
2022/06/30 02:05:50;;;;;;;3.38;3.08;;;20.00;99.90;;;;;;5068336;28;20037;-64
2022/06/30 02:08:15;;;;;;;3.45;3.08;;;20.00;99.90;;;;;;5068729;28;20115;-64
2022/06/30 02:10:41;;;;;;;4.15;2.25;;;20.00;99.90;;;;;;5067972;28;20124;-64
2022/06/30 02:13:06;;;;;;;3.17;2.88;;;19.90;99.90;;;;;;5069220;28;20436;-64
2022/06/30 02:15:33;;;;;;;5.80;3.08;;;19.90;99.90;;;;;;5068716;28;20060;-64
2022/06/30 02:18:05;;;;;;;4.32;2.83;;;19.90;99.90;;;;;;5068131;28;20403;-64
2022/06/30 02:20:31;;;;;;;3.65;2.63;;;19.90;99.90;;;;;;5067166;28;20095;-64
2022/06/30 02:23:02;;;;;;;6.60;3.10;;;19.80;99.90;;;;;;5068288;28;20055;-64
2022/06/30 02:25:30;;;;;;;2.83;2.60;;;19.80;99.90;;;;;;5067908;28;20094;-64
2022/06/30 02:27:56;;;;;;;5.80;2.80;;;19.80;99.90;;;;;;5068462;28;20040;-65
2022/06/30 02:30:22;;;;;;;3.95;2.72;;;19.80;99.90;;;;;;5068419;28;20041;-64
2022/06/30 02:32:47;;;;;;;2.88;2.67;;;19.80;99.90;;;;;;5067401;28;20450;-64
2022/06/30 02:35:14;;;;;;;3.72;2.47;;;19.70;99.90;;;;;;5068384;28;20045;-64
2022/06/30 02:37:40;;;;;;;3.25;2.88;;;19.70;99.90;;;;;;5068649;28;20048;-65
2022/06/30 02:40:07;;;;;;;4.95;3.50;;;19.60;99.90;;;;;;5066710;28;20036;-64
2022/06/30 02:42:33;;;;;;;5.43;3.47;;;19.60;99.90;;;;;;5067089;28;20053;-64
2022/06/30 02:44:58;;;;;;;3.47;3.17;;;19.60;99.90;;;;;;5067934;28;20040;-64
2022/06/30 02:47:31;;;;;;;3.55;2.92;;;19.60;99.90;;;;;;5066676;28;20526;-64
2022/06/30 02:49:57;;;;;;;7.18;3.35;;;19.60;99.90;;;;;;5066508;28;20087;-64
2022/06/30 02:52:22;;;;;;;3.50;3.17;;;19.60;99.90;;;;;;5067018;28;20044;-64
2022/06/30 02:54:48;;;;;;;3.53;3.22;;;19.60;99.90;;;;;;5067800;28;20434;-64
2022/06/30 02:57:13;;;;;;;6.82;3.30;;;19.50;99.90;;;;;;5067830;28;20086;-64
2022/06/30 02:59:39;;;;;;;3.40;3.10;;;19.50;99.90;;;;;;5067752;28;20060;-64
2022/06/30 03:02:05;;;;;;;3.30;2.78;;;19.40;99.90;;;;;;5067277;28;20494;-64
2022/06/30 03:04:30;;;;;;;4.72;3.05;;;19.40;99.90;;;;;;5066369;28;20355;-64
2022/06/30 03:06:56;;;;;;;4.38;3.17;;;19.30;99.90;;;;;;5066485;28;20040;-64
2022/06/30 03:09:23;;;;;;;6.25;3.70;;;19.40;99.90;;;;;;5067617;28;20119;-64
2022/06/30 03:11:49;;;;;;;6.55;3.25;;;19.40;99.90;;;;;;5067361;28;20146;-64
2022/06/30 03:14:14;;;;;;;3.30;2.85;;;19.20;99.90;;;;;;5066645;28;20141;-64
2022/06/30 03:16:40;;;;;;;3.10;2.90;;;19.20;99.90;;;;;;5067922;28;20044;-64
2022/06/30 03:19:06;;;;;;;4.35;2.88;;;19.20;99.90;;;;;;5068313;28;20376;-65
2022/06/30 03:21:32;;;;;;;4.53;3.40;;;19.20;99.90;;;;;;5066396;28;20051;-64
2022/06/30 03:23:57;;;;;;;3.67;3.35;;;19.20;99.90;;;;;;5067234;28;20032;-64
2022/06/30 03:26:23;;;;;;;3.75;3.45;;;19.20;99.90;;;;;;5067185;28;20098;-65
2022/06/30 03:28:49;;;;;;;4.65;3.20;;;19.10;99.90;;;;;;5066281;28;20048;-65
2022/06/30 03:31:14;;;;;;;3.70;3.40;;;19.10;99.90;;;;;;5067406;28;20087;-64
2022/06/30 03:33:41;;;;;;;4.47;3.40;;;19.10;99.90;;;;;;5067712;28;20047;-64
2022/06/30 03:36:06;;;;;;;6.75;2.97;;;19.10;99.90;;;;;;5066589;28;20060;-64
2022/06/30 03:38:32;;;;;;;3.67;3.38;;;19.00;99.90;;;;;;5066990;28;20555;-64
2022/06/30 03:40:57;;;;;;;4.45;3.20;;;19.00;99.90;;;;;;5066878;28;20044;-64
2022/06/30 03:43:23;;;;;;;3.40;3.00;;;19.00;99.90;;;;;;5066147;28;20165;-64
2022/06/30 03:45:48;;;;;;;5.45;3.03;;;19.00;99.90;;;;;;5066636;28;20056;-64
2022/06/30 03:48:14;;;;;;;2.88;2.63;;;19.00;99.90;;;;;;5066723;28;20040;-64
2022/06/30 03:50:40;;;;;;;3.88;3.00;;;19.00;99.90;;;;;;5065241;28;20510;-64
2022/06/30 03:53:05;;;;;;;3.65;3.10;;;19.00;99.90;;;;;;5066638;28;20044;-64
2022/06/30 03:55:33;;;;;;;3.55;3.22;;;19.00;99.90;;;;;;5067048;28;20048;-64
2022/06/30 03:57:59;;;;;;;11.57;3.78;;;18.90;99.90;;;;;;5065113;28;20088;-64
2022/06/30 04:00:25;;;;;;;4.43;3.65;;;19.00;99.90;;;;;;5066277;28;20049;-64
2022/06/30 04:02:51;;;;;;;5.20;3.40;;;18.90;99.90;;;;;;5065787;28;20054;-64
2022/06/30 04:05:16;;;;;;;5.97;2.80;;;19.00;99.90;;;;;;5065260;28;20130;-64
2022/06/30 04:07:44;;;;;;;3.83;3.30;;;18.90;99.90;;;;;;5066224;28;20217;-64
2022/06/30 04:10:12;;;;;;;5.13;3.47;;;18.90;99.90;;;;;;5066391;28;20037;-64
2022/06/30 04:12:39;;;;;;;8.00;3.92;;;19.00;99.90;;;;;;5067098;28;20044;-64
2022/06/30 04:15:06;;;;;;;3.70;3.22;;;19.00;99.90;;;;;;5066319;28;20041;-64
2022/06/30 04:17:34;;;;;;;3.90;3.22;;;19.00;99.90;;;;;;5065423;28;20509;-64
2022/06/30 04:20:01;;;;;;;3.92;3.55;;;19.00;99.90;;;;;;5064756;28;20053;-65
2022/06/30 04:22:26;;;;;;;3.80;3.28;;;19.00;99.90;;;;;;5066091;28;20049;-64
2022/06/30 04:24:52;;;;;;;4.50;4.03;;;19.00;99.90;;;;;;5065730;28;20063;-64
2022/06/30 04:27:18;;;;;;;5.90;3.20;;;19.00;99.90;;;;;;5066267;28;20060;-64
2022/06/30 04:29:44;;;;;;;5.80;3.60;;;19.00;99.90;;;;;;5066079;28;20542;-64
2022/06/30 04:34:53;;;;;;;3.70;3.40;;;19.00;99.90;;;;;;5064591;28;20135;-64
2022/06/30 04:37:19;;;;;;;5.22;3.70;;;19.00;99.90;;;;;;5066085;28;20527;-64
2022/06/30 04:39:45;;;;;;;4.15;3.85;;;19.10;99.90;;;;;;5065294;28;20040;-64
2022/06/30 04:42:11;;;;;;;4.40;4.00;;;19.10;99.90;;;;;;5066739;28;20124;-64
2022/06/30 04:44:37;;;;;;;4.00;3.67;;;19.10;99.90;;;;;;5064931;28;20538;-64
2022/06/30 04:47:02;;;;;;;3.50;3.20;;;19.10;99.90;;;;;;5064825;28;20303;-64
2022/06/30 04:49:28;;;;;;;4.88;3.83;;;19.20;99.90;;;;;;5065884;28;20083;-64
2022/06/30 04:51:54;;;;;;;4.28;3.70;;;19.20;99.90;;;;;;5065509;28;20082;-64
2022/06/30 04:54:19;;;;;;;3.60;3.28;;;19.40;99.90;;;;;;5065434;28;20522;-64
2022/06/30 04:56:45;;;;;;;4.35;3.95;;;19.30;99.90;;;;;;5064313;28;20040;-63
2022/06/30 04:59:11;;;;;;;4.85;4.32;;;19.30;99.90;;;;;;5065617;28;20102;-64
2022/06/30 05:01:37;;;;;;;4.78;3.95;;;19.30;99.90;;;;;;5065217;28;20048;-64
2022/06/30 05:04:02;;;;;;;5.03;3.88;;;19.30;99.90;;;;;;5063971;28;20055;-64
2022/06/30 05:06:28;;;;;;;4.97;3.60;;;19.40;99.90;;;;;;5064853;28;20044;-64
2022/06/30 05:08:53;;;;;;;5.10;3.53;;;19.40;99.90;;;;;;5064171;28;20348;-64
2022/06/30 05:11:19;;;;;;;4.18;3.88;;;19.40;99.90;;;;;;5072415;28;20048;-64
2022/06/30 05:13:45;;;;;;;8.48;4.70;;;19.50;99.90;;;;;;5070612;28;20529;-64
2022/06/30 05:16:11;;;;;;;6.10;3.95;;;19.50;99.90;;;;;;5072894;28;20558;-64
2022/06/30 05:18:37;;;;;;;4.50;4.10;;;19.50;99.90;;;;;;5072994;28;20075;-64
2022/06/30 05:21:02;;;;;;;5.35;4.80;;;19.50;99.90;;;;;;5071282;28;20633;-63
2022/06/30 05:23:28;;;;;;;5.20;4.35;;;19.50;99.90;;;;;;5071040;28;20138;-64
2022/06/30 05:28:38;;;;;;;7.57;4.18;;;19.60;99.90;;;;;;5071881;28;20049;-65
2022/06/30 05:31:04;;;;;;;4.45;4.05;;;19.60;99.90;;;;;;5071999;28;20044;-64
2022/06/30 05:33:29;;;;;;;5.35;4.13;;;19.70;99.90;;;;;;5072308;28;20040;-64
2022/06/30 05:35:55;;;;;;;6.38;4.25;;;19.70;99.90;;;;;;5071388;28;20051;-64
2022/06/30 05:38:21;;;;;;;6.40;3.50;;;19.70;99.90;;;;;;5071807;28;20519;-64
2022/06/30 05:40:47;;;;;;;4.57;4.18;;;19.70;99.90;;;;;;5071837;28;20040;-64
2022/06/30 05:43:18;;;;;;;3.97;3.45;;;19.70;99.90;;;;;;5070265;28;20049;-64
2022/06/30 05:45:50;;;;;;;6.18;4.15;;;19.80;99.90;;;;;;5071968;28;20048;-64
2022/06/30 05:48:16;;;;;;;;;;;19.80;99.90;;;;;;5070956;28;20368;-65
2022/06/30 05:50:42;;;;;;;3.35;2.90;;;19.80;99.90;;;;;;5072114;28;19927;-64
2022/06/30 05:53:08;;;;;;;4.82;4.22;;;20.00;99.90;;;;;;5072410;28;20068;-64
2022/06/30 05:55:33;;;;;;;6.20;3.60;;;19.90;99.90;;;;;;5071153;28;20048;-64
2022/06/30 05:58:06;;;;;;;4.78;4.20;;;20.00;99.90;;;;;;5071805;28;20056;-64
2022/06/30 06:00:32;;;;;;;3.90;3.60;;;20.00;99.90;;;;;;5071820;28;20119;-64
2022/06/30 06:02:59;;;;;;;4.60;4.18;;;20.00;99.90;;;;;;5070858;28;20443;-64
2022/06/30 06:05:25;;;;;;;5.78;4.38;;;20.00;99.90;;;;;;5071902;28;20049;-64
2022/06/30 06:07:52;;;;;;;7.85;4.47;;;20.10;99.90;;;;;;5071491;28;20041;-64
2022/06/30 06:10:18;;;;;;;5.40;3.75;;;20.20;99.90;;;;;;5070936;28;20389;-64
2022/06/30 06:12:44;;;;;;;4.60;4.10;;;20.10;99.90;;;;;;5070501;28;20056;-64
2022/06/30 06:15:14;;;;;;;10.85;5.25;;;20.40;99.90;;;;;;5071900;28;20045;-64
2022/06/30 06:17:46;;;;;;;5.68;4.35;;;20.30;99.90;;;;;;5071857;28;20044;-64
2022/06/30 06:20:14;;;;;;;6.00;4.65;;;20.40;99.90;;;;;;5072240;28;20059;-64
2022/06/30 06:22:41;;;;;;;4.88;4.47;;;20.40;99.90;;;;;;5068289;28;20062;-65
2022/06/30 06:25:08;;;;;;;4.47;4.07;;;20.50;99.90;;;;;;5068209;28;20046;-64
2022/06/30 06:27:34;;;;;;;6.43;4.40;;;20.50;99.90;;;;;;5068221;28;20084;-65
2022/06/30 06:30:00;;;;;;;4.90;4.35;;;20.60;99.90;;;;;;5067964;28;20441;-64
2022/06/30 06:32:26;;;;;;;4.20;3.80;;;20.60;99.90;;;;;;5066173;28;20045;-64
2022/06/30 06:34:52;;;;;;;11.95;4.35;;;20.60;99.90;;;;;;5068097;28;20044;-64
2022/06/30 06:37:17;;;;;;;5.20;4.45;;;20.70;99.90;;;;;;5068153;28;20044;-64
2022/06/30 06:39:43;;;;;;;5.05;4.55;;;20.70;99.90;;;;;;5067739;28;20059;-65
2022/06/30 06:42:08;;;;;;;6.10;4.75;;;20.80;99.90;;;;;;5068780;28;20097;-64
2022/06/30 06:44:34;;;;;;;13.70;4.70;;;20.80;99.90;;;;;;5067449;28;20411;-64
2022/06/30 06:47:00;;;;;;;5.78;5.18;;;20.80;99.90;;;;;;5067687;28;20055;-64
2022/06/30 06:49:27;;;;;;;5.93;4.40;;;20.80;99.90;;;;;;5068013;28;20376;-64
2022/06/30 06:51:53;;;;;;;5.00;4.47;;;21.00;99.90;;;;;;5066907;28;20216;-64
2022/06/30 06:54:19;;;;;;;4.65;4.25;;;21.00;99.90;;;;;;5068031;28;20124;-64
2022/06/30 06:56:44;;;;;;;6.05;4.32;;;21.10;99.90;;;;;;5068427;28;20505;-65
2022/06/30 06:59:10;;;;;;;6.10;3.90;;;21.30;99.90;;;;;;5067241;28;20084;-64
2022/06/30 07:01:36;;;;;;;6.10;4.63;;;21.10;99.90;;;;;;5068202;28;20498;-64
2022/06/30 07:04:02;;;;;;;7.15;4.53;;;21.20;99.90;;;;;;5066337;28;20409;-64
2022/06/30 07:06:28;;;;;;;7.28;4.20;;;21.20;99.90;;;;;;5066587;28;20048;-64
2022/06/30 07:08:53;;;;;;;4.72;4.32;;;21.30;99.90;;;;;;5067585;28;20040;-64
2022/06/30 07:11:19;;;;;;;5.05;4.55;;;21.40;99.90;;;;;;5066434;28;20079;-64
2022/06/30 07:13:45;;;;;;;6.88;4.25;;;21.40;99.90;;;;;;5066751;28;20403;-64
2022/06/30 07:16:12;;;;;;;9.95;5.32;;;21.60;99.90;;;;;;5067049;28;20055;-65
2022/06/30 07:18:37;;;;;;;5.28;4.78;;;21.50;99.90;;;;;;5068068;28;20086;-64
2022/06/30 07:21:03;;;;;;;6.57;4.20;;;21.50;99.90;;;;;;5065393;28;20293;-64
2022/06/30 07:23:29;;;;;;;4.95;4.25;;;21.60;99.90;;;;;;5066188;28;20090;-65
2022/06/30 07:25:54;;;;;;;5.45;4.35;;;21.60;99.90;;;;;;5066806;28;20048;-64
2022/06/30 07:28:20;;;;;;;6.50;4.38;;;21.70;99.90;;;;;;5066249;28;20041;-64
2022/06/30 07:30:45;;;;;;;9.05;5.43;;;21.70;99.90;;;;;;5067212;28;20051;-64
2022/06/30 07:33:11;;;;;;;5.75;5.03;;;21.80;99.90;;;;;;5067727;28;20052;-64
2022/06/30 07:35:37;;;;;;;6.07;4.55;;;21.80;99.90;;;;;;5066902;28;20041;-64
2022/06/30 07:38:03;;;;;;;4.40;4.03;;;21.90;99.90;;;;;;5066748;28;20044;-65
2022/06/30 07:40:29;;;;;;;5.43;4.93;;;22.00;99.90;;;;;;5067148;28;20074;-64
2022/06/30 07:42:55;;;;;;;5.68;5.07;;;22.10;99.90;;;;;;5064944;28;20131;-64
2022/06/30 07:45:22;;;;;;;4.65;4.18;;;22.10;99.90;;;;;;5067339;28;20040;-64
2022/06/30 07:47:49;;;;;;;6.25;4.50;;;22.10;99.90;;;;;;5065996;28;20052;-64
2022/06/30 07:50:17;;;;;;;4.57;4.05;;;22.20;99.90;;;;;;5066785;28;20087;-64
2022/06/30 07:52:43;;;;;;;8.98;4.55;;;22.40;99.90;;;;;;5066854;28;20067;-64
2022/06/30 07:55:09;;;;;;;5.68;5.18;;;22.50;99.90;;;;;;5066506;28;20048;-65
2022/06/30 07:57:42;;;;;;;5.93;5.40;;;22.60;99.90;;;;;;5066409;28;20135;-65
2022/06/30 08:00:09;;;;;;;7.78;5.28;;;22.70;99.90;;;;;;5066843;28;20084;-64
2022/06/30 08:02:35;;;;;;;5.10;4.60;;;22.70;99.90;;;;;;5064352;28;20049;-64
2022/06/30 08:05:00;;;;;;;6.25;4.97;;;22.80;99.90;;;;;;5066434;28;20475;-65
2022/06/30 08:07:26;;;;;;;6.40;5.72;;;22.80;99.90;;;;;;5066625;28;20097;-65
2022/06/30 08:09:52;;;;;;;8.68;6.03;;;22.80;99.90;;;;;;5064637;28;20083;-64
2022/06/30 08:12:17;;;;;;;6.47;5.22;;;22.80;99.90;;;;;;5066701;28;20057;-65
2022/06/30 08:14:43;;;;;;;6.18;5.13;;;22.90;99.90;;;;;;5066277;28;20045;-64
2022/06/30 08:17:08;;;;;;;6.47;5.70;;;23.00;99.90;;;;;;5065918;28;20105;-65
2022/06/30 08:19:34;;;;;;;5.97;5.47;;;23.10;99.90;;;;;;5066246;28;20040;-64
2022/06/30 08:22:00;;;;;;;8.73;5.88;;;23.20;99.90;;;;;;5066228;28;20041;-64
2022/06/30 08:24:26;;;;;;;6.75;6.15;;;23.40;99.90;;;;;;5064117;28;20068;-64
2022/06/30 08:26:52;;;;;;;6.47;5.70;;;23.40;99.90;;;;;;5066043;28;20145;-65
2022/06/30 08:29:17;;;;;;;6.13;5.63;;;23.60;99.90;;;;;;5066377;28;20176;-64
2022/06/30 08:31:43;;;;;;;5.82;5.18;;;23.70;99.90;;;;;;5065237;28;20052;-65
2022/06/30 08:34:09;;;;;;;6.53;5.93;;;23.70;99.90;;;;;;5066439;28;20221;-65
2022/06/30 08:36:34;;;;;;;5.38;4.97;;;23.70;99.90;;;;;;5065882;28;20411;-64
2022/06/30 08:39:00;;;;;;;6.10;5.60;;;23.80;99.90;;;;;;5065090;28;20039;-65
2022/06/30 08:44:12;;;;;;;5.30;4.90;;;23.90;99.90;;;;;;5063787;28;20048;-65
2022/06/30 08:46:38;;;;;;;7.03;6.32;;;24.00;99.90;;;;;;5066309;28;20191;-64
2022/06/30 08:49:05;;;;;;;7.00;5.70;;;24.00;99.90;;;;;;5066009;28;20060;-65
2022/06/30 08:51:34;;;;;;;6.05;5.45;;;24.10;99.90;;;;;;5063798;28;20129;-64
2022/06/30 08:54:01;;;;;;;6.20;5.70;;;24.10;99.90;;;;;;5065841;28;20171;-64
2022/06/30 08:56:31;;;;;;;5.53;5.03;;;24.30;99.90;;;;;;5065587;28;20048;-65
2022/06/30 08:58:58;;;;;;;6.65;6.10;;;24.40;99.90;;;;;;5064673;28;20072;-64
2022/06/30 09:01:26;;;;;;;8.00;5.78;;;24.50;99.90;;;;;;5065960;28;20162;-65
2022/06/30 09:03:52;;;;;;;6.80;6.20;;;24.50;99.90;;;;;;5065601;28;20097;-65
2022/06/30 09:06:18;;;;;;;8.57;6.32;;;24.50;99.90;;;;;;5064990;28;20077;-65
2022/06/30 09:08:44;;;;;;;6.55;5.95;;;24.60;99.90;;;;;;5064367;28;20048;-65
2022/06/30 09:11:09;;;;;;;6.72;6.22;;;24.70;99.90;;;;;;5065909;28;20052;-64
2022/06/30 09:13:44;;;;;;;10.18;5.90;;;24.70;99.90;;;;;;5064829;28;20036;-65
2022/06/30 09:16:10;;;;;;;6.68;6.07;;;24.80;99.90;;;;;;5066135;28;20182;-65
2022/06/30 09:18:36;;;;;;;6.72;5.82;;;24.80;99.90;;;;;;5065642;28;20125;-64
2022/06/30 09:21:18;;;;;;;6.32;5.72;;;24.90;99.90;;;;;;5064542;28;20484;-65
2022/06/30 09:23:45;;;;;;;8.25;6.97;;;25.10;99.90;;;;;;5065759;28;20515;-64
2022/06/30 09:26:18;;;;;;;7.85;7.15;;;25.10;99.90;;;;;;5065715;28;20056;-64
2022/06/30 09:28:53;;;;;;;7.25;6.55;;;25.20;99.90;;;;;;5065590;28;20453;-64
2022/06/30 09:31:35;;;;;;;7.88;7.18;;;25.30;99.90;;;;;;5065679;28;20076;-65
2022/06/30 09:34:18;;;;;;;;;;;25.30;99.90;;;;;;5064944;28;20690;-64
2022/06/30 09:36:46;;;;;;;8.05;6.60;;;25.20;99.90;;;;;;5065673;28;19928;-64
2022/06/30 09:39:13;;;;;;;8.05;7.35;;;25.30;99.90;;;;;;5065756;28;20072;-64
2022/06/30 09:41:41;;;;;;;13.65;6.88;;;25.40;99.90;;;;;;5065300;28;20418;-65
2022/06/30 09:44:22;;;;;;;8.82;8.10;;;25.40;99.90;;;;;;5065842;28;20044;-64
2022/06/30 09:47:15;;;;;;;8.13;7.38;;;25.50;99.90;;;;;;5065000;28;20043;-64
2022/06/30 09:49:44;;;;;;;13.40;8.20;;;25.60;99.90;;;;;;5062499;28;20052;-64
2022/06/30 09:52:19;;;;;;;8.48;7.78;;;25.60;99.90;;;;;;5065479;28;20094;-65
2022/06/30 09:54:56;;;;;;;8.48;7.68;;;25.70;99.90;;;;;;5064378;28;20437;-65
2022/06/30 09:57:25;;;;;;;9.88;7.95;;;25.70;99.90;;;;;;5066881;28;20388;-64
2022/06/30 10:00:06;;;;;;;8.13;7.35;;;25.80;99.90;;;;;;5068697;28;20044;-64
2022/06/30 10:02:33;;;;;;;10.10;7.38;;;25.90;99.90;;;;;;5068280;28;20365;-65
2022/06/30 10:05:00;;;;;;;8.57;7.68;;;26.00;99.90;;;;;;5068588;28;20080;-65
2022/06/30 10:07:26;;;;;;;7.65;7.03;;;26.00;99.90;;;;;;5068572;28;20051;-65
2022/06/30 10:09:52;;;;;;;6.72;6.22;;;26.10;99.90;;;;;;5067693;28;20040;-64
2022/06/30 10:12:19;;;;;;;9.18;7.85;;;26.10;99.90;;;;;;5068676;28;20040;-64
2022/06/30 10:14:47;;;;;;;8.50;7.63;;;26.10;99.90;;;;;;5068555;28;20515;-64
2022/06/30 10:17:19;;;;;;;9.35;8.45;;;26.30;99.90;;;;;;5067837;28;20111;-65
2022/06/30 10:19:46;;;;;;;8.68;7.88;;;26.40;99.90;;;;;;5067504;28;20048;-65
2022/06/30 10:22:13;;;;;;;8.60;7.57;;;26.40;99.90;;;;;;5069124;28;20219;-64
2022/06/30 10:24:41;;;;;;;6.75;6.15;;;26.50;99.90;;;;;;5068205;28;20056;-64
2022/06/30 10:27:15;;;;;;;7.43;6.70;;;26.60;99.90;;;;;;5068605;28;20584;-65
2022/06/30 10:30:02;;;;;;;7.93;7.13;;;26.60;99.90;;;;;;5066950;28;20036;-65
2022/06/30 10:32:46;;;;;;;6.70;6.10;;;26.70;99.90;;;;;;5066917;28;20053;-64
2022/06/30 10:35:27;;;;;;;7.95;6.20;;;26.70;99.90;;;;;;5068635;28;20488;-64
2022/06/30 10:38:12;;;;;;;6.80;6.20;;;26.80;99.90;;;;;;5067320;28;20044;-64
2022/06/30 10:41:07;;;;;;;6.93;6.30;;;26.80;99.90;;;;;;5068738;28;20040;-64
2022/06/30 10:43:33;;;;;;;6.68;6.07;;;26.90;99.90;;;;;;5066374;28;20139;-65
2022/06/30 10:46:06;;;;;;;8.00;6.38;;;26.90;99.90;;;;;;5067483;28;20140;-65
2022/06/30 10:48:53;;;;;;;6.03;5.53;;;26.90;99.90;;;;;;5068211;28;20154;-65
2022/06/30 10:51:20;;;;;;;5.65;5.10;;;27.00;99.90;;;;;;5067228;28;20106;-64
2022/06/30 10:53:45;;;;;;;7.78;7.07;;;27.00;99.90;;;;;;5067810;28;20054;-64
2022/06/30 10:56:12;;;;;;;6.68;6.07;;;26.80;99.90;;;;;;5068665;28;20055;-65
2022/06/30 10:59:11;;;;;;;6.28;5.57;;;26.50;99.90;;;;;;5066203;28;20056;-64
2022/06/30 11:02:06;;;;;;;6.45;5.88;;;26.30;99.90;;;;;;5068351;28;20147;-65
2022/06/30 11:04:32;;;;;;;7.05;6.55;;;26.20;99.90;;;;;;5066653;28;20498;-65
2022/06/30 11:07:10;;;;;;;7.28;6.10;;;26.20;99.90;;;;;;5066607;28;20057;-65
2022/06/30 11:09:48;;;;;;;9.13;6.20;;;26.20;99.90;;;;;;5066690;28;20072;-65
2022/06/30 11:12:15;;;;;;;6.55;4.53;;;26.30;99.90;;;;;;5067007;28;20057;-65
2022/06/30 11:14:50;;;;;;;5.85;5.30;;;26.40;99.90;;;;;;5066883;28;20442;-64
2022/06/30 11:17:18;;;;;;;5.05;4.53;;;26.60;99.90;;;;;;5066652;28;20048;-65
2022/06/30 11:19:44;;;;;;;7.57;6.88;;;26.80;99.90;;;;;;5066667;28;20447;-65
2022/06/30 11:22:15;;;;;;;7.43;6.72;;;27.10;99.90;;;;;;5067744;28;20052;-65
2022/06/30 11:24:43;;;;;;;7.30;6.63;;;27.30;99.90;;;;;;5067845;28;20047;-65
2022/06/30 11:27:17;;;;;;;7.00;6.40;;;27.40;99.90;;;;;;5066801;28;20057;-65
2022/06/30 11:29:45;;;;;;;8.57;7.55;;;27.40;99.90;;;;;;5066302;28;20238;-64
2022/06/30 11:32:11;;;;;;;7.65;6.95;;;27.40;99.90;;;;;;5067940;28;20441;-65
2022/06/30 11:34:40;;;;;;;11.65;7.40;;;27.40;99.90;;;;;;5067176;28;20040;-65
2022/06/30 11:37:06;;;;;;;7.43;6.50;;;27.50;99.90;;;;;;5066880;28;20052;-65
2022/06/30 11:39:32;;;;;;;6.20;5.60;;;27.50;99.90;;;;;;5067191;28;20040;-64
2022/06/30 11:41:59;;;;;;;6.97;5.75;;;27.60;99.90;;;;;;5066231;28;20388;-64
2022/06/30 11:44:28;;;;;;;7.55;5.80;;;27.50;99.90;;;;;;5066889;28;20055;-64
2022/06/30 11:47:05;;;;;;;7.47;5.85;;;27.50;99.90;;;;;;5066200;28;20068;-64
2022/06/30 11:49:48;;;;;;;7.05;6.45;;;27.40;99.90;;;;;;5066861;28;20403;-65
2022/06/30 11:52:21;;;;;;;6.70;6.18;;;27.40;99.90;;;;;;5067082;28;20053;-64
2022/06/30 11:54:54;;;;;;;9.30;7.75;;;27.40;99.90;;;;;;5065696;28;20041;-65
2022/06/30 11:57:22;;;;;;;6.78;6.13;;;27.40;99.90;;;;;;5066630;28;20048;-64
2022/06/30 11:59:53;;;;;;;17.35;6.30;;;27.40;99.90;;;;;;5066391;28;20040;-64
2022/06/30 12:02:19;;;;;;;6.72;6.13;;;27.50;99.90;;;;;;5064615;28;20538;-65
2022/06/30 12:04:51;;;;;;;6.35;5.70;;;27.50;99.90;;;;;;5066516;28;20036;-65
2022/06/30 12:07:17;;;;;;;6.15;4.70;;;27.60;99.90;;;;;;5066531;28;20368;-64
2022/06/30 12:09:44;;;;;;;5.47;4.97;;;27.80;99.90;;;;;;5064551;28;20059;-65
2022/06/30 12:12:14;;;;;;;5.50;4.97;;;28.00;99.90;;;;;;5066864;28;20119;-65
2022/06/30 12:14:40;;;;;;;10.07;5.07;;;28.00;99.90;;;;;;5065744;28;20044;-65
2022/06/30 12:17:13;;;;;;;6.32;5.00;;;28.00;99.90;;;;;;5065536;28;20127;-65
2022/06/30 12:19:43;;;;;;;4.72;4.05;;;28.10;99.90;;;;;;5066047;28;20503;-65
2022/06/30 12:22:09;;;;;;;9.38;4.60;;;28.20;99.90;;;;;;5065871;28;20078;-65
2022/06/30 12:24:36;;;;;;;5.38;4.60;;;28.20;99.90;;;;;;5064835;28;20076;-65
2022/06/30 12:27:01;;;;;;;4.18;3.78;;;28.30;99.90;;;;;;5064678;28;20041;-65
2022/06/30 12:29:28;;;;;;;3.65;3.35;;;28.30;99.90;;;;;;5063946;28;20049;-65
2022/06/30 12:31:58;;;;;;;5.15;4.65;;;28.40;99.90;;;;;;5064656;28;20067;-65
2022/06/30 12:34:24;;;;;;;10.18;9.18;;;28.20;99.90;;;;;;5065907;28;20048;-65
2022/06/30 12:36:50;;;;;;;11.77;9.52;;;28.40;99.90;;;;;;5063853;28;20060;-65
2022/06/30 12:39:16;;;;;;;11.15;10.15;;;28.30;99.90;;;;;;5065975;28;20526;-65
2022/06/30 12:41:43;;;;;;;12.35;11.15;;;28.20;99.90;;;;;;5066334;28;20407;-65
2022/06/30 12:44:10;;;;;;;11.02;8.35;;;28.10;99.90;;;;;;5064360;28;20052;-65
2022/06/30 12:46:41;;;;;;;8.82;7.93;;;28.00;99.90;;;;;;5065908;28;20040;-65
2022/06/30 12:49:18;;;;;;;;;;;27.80;99.90;;;;;;5065495;28;20051;-65
2022/06/30 12:51:44;;;;;;;9.75;7.70;;;27.50;99.90;;;;;;5065043;28;20285;-65
2022/06/30 12:54:13;;;;;;;9.15;8.15;;;27.30;99.90;;;;;;5066303;28;20041;-65
2022/06/30 12:56:41;;;;;;;11.93;8.15;;;27.20;99.90;;;;;;5065192;28;20048;-65
2022/06/30 12:59:08;;;;;;;11.55;9.20;;;27.10;99.90;;;;;;5065359;28;20207;-65
2022/06/30 13:01:36;;;;;;;10.30;9.13;;;27.20;99.90;;;;;;5065667;28;20094;-65